createdAt,value
2022-08-24T00:02:24.823Z,14.57
2022-08-24T00:07:28.249Z,13.05
2022-08-24T00:12:33.119Z,13.32
2022-08-24T00:17:36.383Z,13.38
2022-08-24T00:22:40.749Z,13.23
2022-08-24T00:27:44.030Z,13.60
2022-08-24T00:32:48.885Z,13.52
2022-08-24T00:37:53.581Z,13.43
2022-08-24T00:43:03.901Z,14.25
2022-08-24T00:48:15.412Z,13.98
2022-08-24T00:53:26.499Z,12.93
2022-08-24T00:58:35.473Z,14.07
2022-08-24T01:03:39.270Z,16.95
2022-08-24T01:08:42.671Z,19.65
2022-08-24T01:13:48.680Z,20.95
2022-08-24T01:18:51.925Z,22.88
2022-08-24T01:24:04.951Z,22.35
2022-08-24T01:29:11.825Z,23.75
2022-08-24T01:34:16.018Z,24.67
2022-08-24T01:39:22.250Z,26.75
2022-08-24T01:44:28.209Z,26.85
2022-08-24T01:49:34.250Z,26.55
2022-08-24T01:54:37.518Z,25.83
2022-08-24T01:59:41.238Z,27.67
2022-08-24T02:04:44.659Z,28.77
2022-08-24T02:09:47.840Z,29.33
2022-08-24T02:14:52.069Z,30.30
2022-08-24T02:19:55.479Z,29.48
2022-08-24T02:25:03.000Z,31.70
2022-08-24T02:30:09.553Z,32.55
2022-08-24T02:35:15.081Z,32.85
2022-08-24T02:40:18.831Z,31.00
2022-08-24T02:45:22.580Z,32.22
2022-08-24T02:50:27.278Z,32.20
2022-08-24T02:55:30.662Z,31.92
2022-08-24T03:00:34.254Z,30.58
2022-08-24T03:05:38.050Z,30.73
2022-08-24T03:10:41.400Z,32.00
2022-08-24T03:15:45.093Z,32.75
2022-08-24T03:20:49.797Z,32.75
2022-08-24T03:25:53.769Z,31.08
2022-08-24T03:30:57.323Z,33.55
2022-08-24T03:36:01.510Z,33.58
2022-08-24T03:41:11.767Z,34.15
2022-08-24T03:46:25.238Z,32.70
2022-08-24T03:51:30.340Z,30.52
2022-08-24T03:56:33.789Z,33.75
2022-08-24T04:01:40.087Z,35.67
2022-08-24T04:06:45.195Z,34.80
2022-08-24T04:11:51.988Z,38.05
2022-08-24T04:16:57.712Z,35.83
2022-08-24T04:22:01.637Z,38.55
2022-08-24T04:27:05.125Z,37.55
2022-08-24T04:32:08.695Z,35.60
2022-08-24T04:37:13.015Z,34.60
2022-08-24T04:42:26.713Z,36.33
2022-08-24T04:47:31.071Z,35.17
2022-08-24T04:52:34.114Z,38.90
2022-08-24T04:57:37.565Z,40.35
2022-08-24T05:02:44.772Z,40.50
2022-08-24T05:07:52.343Z,41.72
2022-08-24T05:13:00.273Z,39.28
2022-08-24T05:18:06.295Z,39.20
2022-08-24T05:23:13.534Z,37.33
2022-08-24T05:28:34.296Z,37.90
2022-08-24T05:33:48.867Z,37.45
2022-08-24T05:38:55.279Z,32.38
2022-08-24T05:43:58.624Z,26.05
2022-08-24T05:49:02.401Z,28.85
2022-08-24T05:54:06.951Z,28.30
2022-08-24T05:59:11.238Z,28.50
2022-08-24T06:04:15.083Z,29.05
2022-08-24T06:09:18.564Z,27.98
2022-08-24T06:14:27.164Z,27.33
2022-08-24T06:19:30.491Z,28.60
2022-08-24T06:24:58.801Z,29.90
2022-08-24T06:30:07.316Z,32.53
2022-08-24T06:35:11.328Z,35.55
2022-08-24T06:40:14.605Z,35.75
2022-08-24T06:45:18.055Z,32.47
2022-08-24T06:50:24.473Z,34.28
2022-08-24T06:55:28.922Z,31.75
2022-08-24T07:00:32.275Z,33.55
2022-08-24T07:05:35.933Z,29.35
2022-08-24T07:10:45.215Z,29.42
2022-08-24T07:15:48.786Z,33.17
2022-08-24T07:20:52.366Z,29.75
2022-08-24T07:25:56.227Z,28.25
2022-08-24T07:31:00.650Z,30.35
2022-08-24T07:36:04.117Z,29.60
2022-08-24T07:41:36.624Z,27.65
2022-08-24T07:46:32.462Z,27.83
2022-08-24T07:51:35.932Z,27.85
2022-08-24T07:56:39.025Z,26.73
2022-08-24T08:01:42.877Z,24.77
2022-08-24T08:06:46.338Z,23.75
2022-08-24T08:11:49.973Z,23.35
2022-08-24T08:16:53.646Z,21.42
2022-08-24T08:22:22.893Z,20.45
2022-08-24T08:27:26.678Z,24.70
2022-08-24T08:32:29.943Z,21.73
2022-08-24T08:37:38.419Z,18.95
2022-08-24T08:43:14.926Z,18.67
2022-08-24T08:48:51.056Z,16.83
2022-08-24T08:54:12.325Z,16.75
2022-08-24T08:59:38.805Z,15.35
2022-08-24T09:04:44.969Z,16.10
2022-08-24T09:09:48.007Z,16.20
2022-08-24T09:15:30.925Z,15.20
2022-08-24T09:20:36.665Z,14.80
2022-08-24T09:26:07.625Z,14.10
2022-08-24T09:31:55.685Z,14.38
2022-08-24T09:37:55.978Z,13.88
2022-08-24T09:43:35.808Z,14.82
2022-08-24T09:49:11.227Z,14.48
2022-08-24T09:54:41.385Z,14.55
2022-08-24T10:00:06.566Z,15.07
2022-08-24T10:05:14.296Z,13.63
2022-08-24T10:10:37.009Z,15.35
2022-08-24T10:16:15.433Z,14.82
2022-08-24T10:21:21.864Z,16.23
2022-08-24T10:26:59.022Z,14.57
2022-08-24T10:32:41.355Z,15.45
2022-08-24T10:38:29.885Z,16.25
2022-08-24T10:43:36.242Z,14.95
2022-08-24T10:48:54.825Z,14.70
2022-08-24T10:54:00.084Z,15.55
2022-08-24T10:59:25.056Z,14.98
2022-08-24T11:04:35.256Z,16.88
2022-08-24T11:09:59.238Z,15.18
2022-08-24T11:15:24.504Z,13.80
2022-08-24T11:20:33.068Z,12.35
2022-08-24T11:25:40.371Z,10.95
2022-08-24T11:30:43.848Z,9.98
2022-08-24T11:35:47.001Z,9.18
2022-08-24T11:41:13.427Z,8.75
2022-08-24T11:46:43.254Z,9.05
2022-08-24T11:51:58.594Z,8.60
2022-08-24T11:57:20.504Z,9.25
2022-08-24T12:02:34.500Z,8.80
2022-08-24T12:08:01.091Z,10.10
2022-08-24T12:13:26.722Z,8.65
2022-08-24T12:18:57.417Z,9.60
2022-08-24T12:24:08.892Z,9.80
2022-08-24T12:29:39.085Z,8.23
2022-08-24T12:35:09.780Z,7.38
2022-08-24T12:40:40.725Z,8.15
2022-08-24T12:45:44.664Z,7.57
2022-08-24T12:51:25.520Z,8.52
2022-08-24T12:56:52.820Z,7.60
2022-08-24T13:02:04.053Z,7.75
2022-08-24T13:07:12.257Z,10.52
2022-08-24T13:12:42.244Z,14.93
2022-08-24T13:17:46.001Z,6.00
2022-08-24T13:23:07.848Z,7.70
2022-08-24T13:28:32.754Z,6.22
2022-08-24T13:33:54.933Z,6.32
2022-08-24T13:39:21.269Z,6.80
2022-08-24T13:45:06.015Z,5.65
2022-08-24T13:50:27.154Z,5.43
2022-08-24T13:55:44.306Z,6.60
2022-08-24T14:01:19.950Z,6.03
2022-08-24T14:06:36.204Z,6.10
2022-08-24T14:11:57.144Z,6.90
2022-08-24T14:17:35.460Z,6.03
2022-08-24T14:23:01.226Z,4.82
2022-08-24T14:28:43.496Z,5.25
2022-08-24T14:34:10.364Z,6.13
2022-08-24T14:39:55.267Z,5.53
2022-08-24T14:45:12.434Z,5.68
2022-08-24T14:50:24.844Z,5.43
2022-08-24T14:55:56.905Z,5.43
2022-08-24T15:01:20.791Z,6.00
2022-08-24T15:06:50.401Z,5.13
2022-08-24T15:12:01.822Z,5.35
2022-08-24T15:17:29.686Z,5.57
2022-08-24T15:22:45.279Z,6.35
2022-08-24T15:27:56.532Z,5.80
2022-08-24T15:33:18.943Z,6.22
2022-08-24T15:38:27.109Z,5.53
2022-08-24T15:43:31.068Z,6.18
2022-08-24T15:48:34.995Z,5.25
2022-08-24T15:53:42.054Z,5.40
2022-08-24T15:58:45.305Z,4.70
2022-08-24T16:03:57.056Z,4.78
2022-08-24T16:09:12.721Z,5.47
2022-08-24T16:14:32.683Z,5.22
2022-08-24T16:19:36.895Z,4.47
2022-08-24T16:24:43.767Z,5.90
2022-08-24T16:29:53.539Z,6.05
2022-08-24T16:35:16.824Z,5.07
2022-08-24T16:40:20.766Z,4.57
2022-08-24T16:45:24.366Z,4.80
2022-08-24T16:50:27.697Z,5.05
2022-08-24T16:55:31.024Z,5.63
2022-08-24T17:00:34.585Z,5.80
2022-08-24T17:05:38.874Z,5.40
2022-08-24T17:10:43.957Z,5.90
2022-08-24T17:15:50.776Z,5.07
2022-08-24T17:20:59.859Z,5.15
2022-08-24T17:26:19.209Z,5.60
2022-08-24T17:31:29.410Z,5.60
2022-08-24T17:36:33.677Z,6.95
2022-08-24T17:41:37.170Z,6.50
2022-08-24T17:46:46.749Z,7.70
2022-08-24T17:51:55.753Z,8.23
2022-08-24T17:57:01.070Z,7.88
2022-08-24T18:02:17.464Z,6.70
2022-08-24T18:07:42.285Z,8.20
2022-08-24T18:12:46.905Z,8.63
2022-08-24T18:17:58.941Z,6.97
2022-08-24T18:23:04.488Z,7.63
2022-08-24T18:28:11.401Z,6.63
2022-08-24T18:33:17.227Z,7.72
2022-08-24T18:38:22.880Z,7.10
2022-08-24T18:43:30.670Z,7.38
2022-08-24T18:48:33.978Z,7.40
2022-08-24T18:53:37.256Z,6.93
2022-08-24T18:58:41.293Z,6.45
2022-08-24T19:03:44.746Z,6.07
2022-08-24T19:08:49.438Z,8.43
2022-08-24T19:13:53.145Z,6.40
2022-08-24T19:18:57.256Z,6.47
2022-08-24T19:24:03.376Z,7.22
2022-08-24T19:29:07.215Z,6.43
2022-08-24T19:34:11.306Z,6.22
2022-08-24T19:39:17.477Z,6.32
2022-08-24T19:44:51.829Z,6.03
2022-08-24T19:49:55.672Z,6.32
2022-08-24T19:54:59.779Z,6.32
2022-08-24T20:00:29.372Z,7.25
2022-08-24T20:05:34.027Z,5.60
2022-08-24T20:10:39.463Z,7.20
2022-08-24T20:15:43.657Z,6.40
2022-08-24T20:20:49.038Z,6.20
2022-08-24T20:25:54.615Z,6.35
2022-08-24T20:30:57.747Z,6.78
2022-08-24T20:36:01.823Z,6.40
2022-08-24T20:41:05.825Z,7.00
2022-08-24T20:46:10.566Z,7.63
2022-08-24T20:51:14.444Z,7.18
2022-08-24T20:56:31.730Z,7.03
2022-08-24T21:01:35.427Z,6.95
2022-08-24T21:06:41.406Z,7.15
2022-08-24T21:11:46.045Z,6.82
2022-08-24T21:16:50.118Z,7.10
2022-08-24T21:21:53.429Z,6.60
2022-08-24T21:26:56.895Z,7.75
2022-08-24T21:32:35.605Z,7.40
2022-08-24T21:37:39.486Z,7.90
2022-08-24T21:42:43.083Z,8.27
2022-08-24T21:47:46.445Z,7.30
2022-08-24T21:52:51.272Z,7.72
2022-08-24T21:57:56.977Z,8.98
2022-08-24T22:03:01.030Z,8.80
2022-08-24T22:08:04.986Z,8.75
2022-08-24T22:13:08.379Z,8.23
2022-08-24T22:18:11.789Z,8.60
2022-08-24T22:23:15.013Z,9.55
2022-08-24T22:28:18.447Z,10.15
2022-08-24T22:33:21.933Z,11.40
2022-08-24T22:38:25.534Z,11.90
2022-08-24T22:43:49.038Z,12.85
2022-08-24T22:48:55.144Z,11.93
2022-08-24T22:53:58.813Z,11.90
2022-08-24T22:59:02.159Z,12.50
2022-08-24T23:04:12.766Z,12.30
2022-08-24T23:09:16.777Z,12.32
2022-08-24T23:14:21.494Z,12.82
2022-08-24T23:19:44.604Z,12.15
2022-08-24T23:24:48.786Z,12.10
2022-08-24T23:29:52.092Z,10.98
2022-08-24T23:34:59.598Z,10.98
2022-08-24T23:40:19.557Z,11.57
2022-08-24T23:45:28.032Z,10.65
2022-08-24T23:50:31.643Z,11.65
2022-08-24T23:55:34.926Z,10.73
